<?xml version="1.0" encoding="UTF-8" standalone="no" ?>
<gpx xmlns="http://www.topografix.com/GPX/1/1" xmlns:xsi="http://www.w3.org/2001/XMLSchema-instance" xsi:schemaLocation="http://www.topografix.com/GPX/1/1 http://www.topografix.com/GPX/1/1/gpx.xsd" version="1.1" creator="VisuGPX - https://www.visugpx.com">
  <metadata>
    <name>descente de la boucle soularac st- barthelemy</name>
    <desc><![CDATA[suite de la boucle Soularac st-Barthélémy]]></desc>
  </metadata>
  <trk>
    <name><![CDATA[2017-06-10-02St-Barthelemy]]></name>
    <trkseg>
      <trkpt lat="42.81918" lon="1.77119">
        <ele>2303.7</ele>
        <time>2017-06-10T11:11:07Z</time>
      </trkpt>
      <trkpt lat="42.8191" lon="1.77126">
        <ele>2305.2</ele>
        <time>2017-06-10T11:11:35Z</time>
      </trkpt>
      <trkpt lat="42.81908" lon="1.77114">
        <ele>2306</ele>
        <time>2017-06-10T11:11:47Z</time>
      </trkpt>
      <trkpt lat="42.81902" lon="1.77103">
        <ele>2307</ele>
        <time>2017-06-10T11:11:55Z</time>
      </trkpt>
      <trkpt lat="42.81894" lon="1.77096">
        <ele>2309.1</ele>
        <time>2017-06-10T11:12:01Z</time>
      </trkpt>
      <trkpt lat="42.81887" lon="1.77087">
        <ele>2311.5</ele>
        <time>2017-06-10T11:12:09Z</time>
      </trkpt>
      <trkpt lat="42.81878" lon="1.77083">
        <ele>2314</ele>
        <time>2017-06-10T11:12:17Z</time>
      </trkpt>
      <trkpt lat="42.8187" lon="1.77076">
        <ele>2315.6</ele>
        <time>2017-06-10T11:12:27Z</time>
      </trkpt>
      <trkpt lat="42.8186" lon="1.77073">
        <ele>2317.8</ele>
        <time>2017-06-10T11:12:39Z</time>
      </trkpt>
      <trkpt lat="42.81851" lon="1.77076">
        <ele>2320.2</ele>
        <time>2017-06-10T11:12:47Z</time>
      </trkpt>
      <trkpt lat="42.81842" lon="1.77078">
        <ele>2323.4</ele>
        <time>2017-06-10T11:13:03Z</time>
      </trkpt>
      <trkpt lat="42.81833" lon="1.7708">
        <ele>2326.5</ele>
        <time>2017-06-10T11:13:11Z</time>
      </trkpt>
      <trkpt lat="42.81823" lon="1.77082">
        <ele>2325.6</ele>
        <time>2017-06-10T11:13:27Z</time>
      </trkpt>
      <trkpt lat="42.81815" lon="1.77077">
        <ele>2323.6</ele>
        <time>2017-06-10T11:13:40Z</time>
      </trkpt>
      <trkpt lat="42.81805" lon="1.77079">
        <ele>2321.5</ele>
        <time>2017-06-10T11:13:47Z</time>
      </trkpt>
      <trkpt lat="42.81796" lon="1.77078">
        <ele>2319.1</ele>
        <time>2017-06-10T11:13:58Z</time>
      </trkpt>
      <trkpt lat="42.81787" lon="1.77083">
        <ele>2317.7</ele>
        <time>2017-06-10T11:14:08Z</time>
      </trkpt>
      <trkpt lat="42.81778" lon="1.77085">
        <ele>2315.9</ele>
        <time>2017-06-10T11:14:17Z</time>
      </trkpt>
      <trkpt lat="42.8177" lon="1.77094">
        <ele>2312.4</ele>
        <time>2017-06-10T11:14:24Z</time>
      </trkpt>
      <trkpt lat="42.81763" lon="1.77103">
        <ele>2307.8</ele>
        <time>2017-06-10T11:14:30Z</time>
      </trkpt>
      <trkpt lat="42.81757" lon="1.77112">
        <ele>2303.6</ele>
        <time>2017-06-10T11:14:35Z</time>
      </trkpt>
      <trkpt lat="42.81748" lon="1.7712">
        <ele>2297.4</ele>
        <time>2017-06-10T11:14:42Z</time>
      </trkpt>
      <trkpt lat="42.81739" lon="1.77123">
        <ele>2291.7</ele>
        <time>2017-06-10T11:14:50Z</time>
      </trkpt>
      <trkpt lat="42.81729" lon="1.77126">
        <ele>2286.5</ele>
        <time>2017-06-10T11:14:59Z</time>
      </trkpt>
      <trkpt lat="42.8172" lon="1.7713">
        <ele>2281.3</ele>
        <time>2017-06-10T11:15:07Z</time>
      </trkpt>
      <trkpt lat="42.81711" lon="1.77133">
        <ele>2277.5</ele>
        <time>2017-06-10T11:15:13Z</time>
      </trkpt>
      <trkpt lat="42.81701" lon="1.77134">
        <ele>2272.2</ele>
        <time>2017-06-10T11:15:22Z</time>
      </trkpt>
      <trkpt lat="42.81692" lon="1.77135">
        <ele>2268.3</ele>
        <time>2017-06-10T11:15:29Z</time>
      </trkpt>
      <trkpt lat="42.81684" lon="1.77127">
        <ele>2266.8</ele>
        <time>2017-06-10T11:15:39Z</time>
      </trkpt>
      <trkpt lat="42.81675" lon="1.77121">
        <ele>2264.7</ele>
        <time>2017-06-10T11:15:47Z</time>
      </trkpt>
      <trkpt lat="42.81673" lon="1.77107">
        <ele>2266.6</ele>
        <time>2017-06-10T11:15:58Z</time>
      </trkpt>
      <trkpt lat="42.81666" lon="1.77098">
        <ele>2266.9</ele>
        <time>2017-06-10T11:16:06Z</time>
      </trkpt>
      <trkpt lat="42.81657" lon="1.77092">
        <ele>2266.4</ele>
        <time>2017-06-10T11:18:17Z</time>
      </trkpt>
      <trkpt lat="42.81648" lon="1.77088">
        <ele>2264.7</ele>
        <time>2017-06-10T11:18:25Z</time>
      </trkpt>
      <trkpt lat="42.8164" lon="1.77082">
        <ele>2262.8</ele>
        <time>2017-06-10T11:18:38Z</time>
      </trkpt>
      <trkpt lat="42.81631" lon="1.77079">
        <ele>2259.3</ele>
        <time>2017-06-10T11:18:54Z</time>
      </trkpt>
      <trkpt lat="42.81622" lon="1.77082">
        <ele>2257.2</ele>
        <time>2017-06-10T11:19:02Z</time>
      </trkpt>
      <trkpt lat="42.81613" lon="1.77086">
        <ele>2254.2</ele>
        <time>2017-06-10T11:19:14Z</time>
      </trkpt>
      <trkpt lat="42.81604" lon="1.77087">
        <ele>2251.4</ele>
        <time>2017-06-10T11:19:21Z</time>
      </trkpt>
      <trkpt lat="42.81595" lon="1.77091">
        <ele>2247.8</ele>
        <time>2017-06-10T11:19:31Z</time>
      </trkpt>
      <trkpt lat="42.81585" lon="1.77095">
        <ele>2244.4</ele>
        <time>2017-06-10T11:19:39Z</time>
      </trkpt>
      <trkpt lat="42.81577" lon="1.771">
        <ele>2240.9</ele>
        <time>2017-06-10T11:20:00Z</time>
      </trkpt>
      <trkpt lat="42.81568" lon="1.77103">
        <ele>2238.9</ele>
        <time>2017-06-10T11:20:07Z</time>
      </trkpt>
      <trkpt lat="42.81559" lon="1.77105">
        <ele>2236.8</ele>
        <time>2017-06-10T11:20:15Z</time>
      </trkpt>
      <trkpt lat="42.81549" lon="1.77108">
        <ele>2234.5</ele>
        <time>2017-06-10T11:20:23Z</time>
      </trkpt>
      <trkpt lat="42.8154" lon="1.7711">
        <ele>2232.3</ele>
        <time>2017-06-10T11:20:33Z</time>
      </trkpt>
      <trkpt lat="42.8153" lon="1.77114">
        <ele>2230.2</ele>
        <time>2017-06-10T11:20:42Z</time>
      </trkpt>
      <trkpt lat="42.81521" lon="1.77117">
        <ele>2228.2</ele>
        <time>2017-06-10T11:20:50Z</time>
      </trkpt>
      <trkpt lat="42.81511" lon="1.77117">
        <ele>2226.4</ele>
        <time>2017-06-10T11:20:57Z</time>
      </trkpt>
      <trkpt lat="42.81502" lon="1.77118">
        <ele>2224.5</ele>
        <time>2017-06-10T11:21:04Z</time>
      </trkpt>
      <trkpt lat="42.81493" lon="1.77124">
        <ele>2222.8</ele>
        <time>2017-06-10T11:21:13Z</time>
      </trkpt>
      <trkpt lat="42.81484" lon="1.77127">
        <ele>2221</ele>
        <time>2017-06-10T11:21:26Z</time>
      </trkpt>
      <trkpt lat="42.81474" lon="1.77129">
        <ele>2219.2</ele>
        <time>2017-06-10T11:21:34Z</time>
      </trkpt>
      <trkpt lat="42.81465" lon="1.7713">
        <ele>2217.1</ele>
        <time>2017-06-10T11:21:45Z</time>
      </trkpt>
      <trkpt lat="42.81456" lon="1.7713">
        <ele>2215.3</ele>
        <time>2017-06-10T11:21:55Z</time>
      </trkpt>
      <trkpt lat="42.81447" lon="1.77133">
        <ele>2213.5</ele>
        <time>2017-06-10T11:22:05Z</time>
      </trkpt>
      <trkpt lat="42.81437" lon="1.77135">
        <ele>2211.6</ele>
        <time>2017-06-10T11:22:14Z</time>
      </trkpt>
      <trkpt lat="42.81428" lon="1.77137">
        <ele>2209.7</ele>
        <time>2017-06-10T11:22:22Z</time>
      </trkpt>
      <trkpt lat="42.81419" lon="1.7714">
        <ele>2207.6</ele>
        <time>2017-06-10T11:22:30Z</time>
      </trkpt>
      <trkpt lat="42.81409" lon="1.77141">
        <ele>2206.4</ele>
        <time>2017-06-10T11:22:38Z</time>
      </trkpt>
      <trkpt lat="42.814" lon="1.77141">
        <ele>2206.3</ele>
        <time>2017-06-10T11:22:46Z</time>
      </trkpt>
      <trkpt lat="42.8139" lon="1.77139">
        <ele>2206.4</ele>
        <time>2017-06-10T11:22:56Z</time>
      </trkpt>
      <trkpt lat="42.81382" lon="1.77135">
        <ele>2206.5</ele>
        <time>2017-06-10T11:23:09Z</time>
      </trkpt>
      <trkpt lat="42.81373" lon="1.77128">
        <ele>2206.5</ele>
        <time>2017-06-10T11:23:18Z</time>
      </trkpt>
      <trkpt lat="42.81364" lon="1.77125">
        <ele>2206.3</ele>
        <time>2017-06-10T11:23:26Z</time>
      </trkpt>
      <trkpt lat="42.81353" lon="1.77122">
        <ele>2206</ele>
        <time>2017-06-10T11:25:37Z</time>
      </trkpt>
      <trkpt lat="42.81347" lon="1.77114">
        <ele>2205.4</ele>
        <time>2017-06-10T11:25:49Z</time>
      </trkpt>
      <trkpt lat="42.81343" lon="1.77101">
        <ele>2204.5</ele>
        <time>2017-06-10T11:25:58Z</time>
      </trkpt>
      <trkpt lat="42.81334" lon="1.77096">
        <ele>2203.5</ele>
        <time>2017-06-10T11:26:06Z</time>
      </trkpt>
      <trkpt lat="42.81327" lon="1.77086">
        <ele>2202</ele>
        <time>2017-06-10T11:26:15Z</time>
      </trkpt>
      <trkpt lat="42.81321" lon="1.77076">
        <ele>2199.8</ele>
        <time>2017-06-10T11:26:25Z</time>
      </trkpt>
      <trkpt lat="42.81317" lon="1.77064">
        <ele>2197</ele>
        <time>2017-06-10T11:26:34Z</time>
      </trkpt>
      <trkpt lat="42.81316" lon="1.77052">
        <ele>2194.2</ele>
        <time>2017-06-10T11:26:48Z</time>
      </trkpt>
      <trkpt lat="42.81317" lon="1.77039">
        <ele>2191.9</ele>
        <time>2017-06-10T11:26:59Z</time>
      </trkpt>
      <trkpt lat="42.81307" lon="1.77038">
        <ele>2189.9</ele>
        <time>2017-06-10T11:27:14Z</time>
      </trkpt>
      <trkpt lat="42.81298" lon="1.77039">
        <ele>2188.9</ele>
        <time>2017-06-10T11:27:24Z</time>
      </trkpt>
      <trkpt lat="42.81289" lon="1.7704">
        <ele>2188.1</ele>
        <time>2017-06-10T11:27:34Z</time>
      </trkpt>
      <trkpt lat="42.81281" lon="1.77033">
        <ele>2185.7</ele>
        <time>2017-06-10T11:27:48Z</time>
      </trkpt>
      <trkpt lat="42.81279" lon="1.7702">
        <ele>2183.3</ele>
        <time>2017-06-10T11:27:56Z</time>
      </trkpt>
      <trkpt lat="42.81276" lon="1.77008">
        <ele>2180.3</ele>
        <time>2017-06-10T11:28:06Z</time>
      </trkpt>
      <trkpt lat="42.81272" lon="1.76997">
        <ele>2176.9</ele>
        <time>2017-06-10T11:28:17Z</time>
      </trkpt>
      <trkpt lat="42.8127" lon="1.76985">
        <ele>2173.5</ele>
        <time>2017-06-10T11:30:41Z</time>
      </trkpt>
      <trkpt lat="42.81265" lon="1.76974">
        <ele>2169.7</ele>
        <time>2017-06-10T11:30:58Z</time>
      </trkpt>
      <trkpt lat="42.81262" lon="1.76963">
        <ele>2166.6</ele>
        <time>2017-06-10T11:31:10Z</time>
      </trkpt>
      <trkpt lat="42.81258" lon="1.76951">
        <ele>2162.3</ele>
        <time>2017-06-10T11:31:26Z</time>
      </trkpt>
      <trkpt lat="42.81253" lon="1.76941">
        <ele>2158.7</ele>
        <time>2017-06-10T11:31:45Z</time>
      </trkpt>
      <trkpt lat="42.81247" lon="1.76931">
        <ele>2154.8</ele>
        <time>2017-06-10T11:31:58Z</time>
      </trkpt>
      <trkpt lat="42.8124" lon="1.76923">
        <ele>2149.6</ele>
        <time>2017-06-10T11:32:14Z</time>
      </trkpt>
      <trkpt lat="42.81233" lon="1.76913">
        <ele>2145.1</ele>
        <time>2017-06-10T11:32:32Z</time>
      </trkpt>
      <trkpt lat="42.81224" lon="1.76911">
        <ele>2140.5</ele>
        <time>2017-06-10T11:33:15Z</time>
      </trkpt>
      <trkpt lat="42.81214" lon="1.7691">
        <ele>2137.5</ele>
        <time>2017-06-10T11:33:29Z</time>
      </trkpt>
      <trkpt lat="42.81208" lon="1.76902">
        <ele>2133</ele>
        <time>2017-06-10T11:33:42Z</time>
      </trkpt>
      <trkpt lat="42.81204" lon="1.76891">
        <ele>2128.2</ele>
        <time>2017-06-10T11:33:59Z</time>
      </trkpt>
      <trkpt lat="42.81196" lon="1.76885">
        <ele>2124.3</ele>
        <time>2017-06-10T11:34:16Z</time>
      </trkpt>
      <trkpt lat="42.81187" lon="1.76883">
        <ele>2120.8</ele>
        <time>2017-06-10T11:34:34Z</time>
      </trkpt>
      <trkpt lat="42.81183" lon="1.76872">
        <ele>2117.4</ele>
        <time>2017-06-10T11:34:52Z</time>
      </trkpt>
      <trkpt lat="42.81174" lon="1.76868">
        <ele>2113.7</ele>
        <time>2017-06-10T11:35:07Z</time>
      </trkpt>
      <trkpt lat="42.81166" lon="1.76862">
        <ele>2109.6</ele>
        <time>2017-06-10T11:35:23Z</time>
      </trkpt>
      <trkpt lat="42.81157" lon="1.76857">
        <ele>2104.7</ele>
        <time>2017-06-10T11:35:34Z</time>
      </trkpt>
      <trkpt lat="42.81153" lon="1.76846">
        <ele>2100.3</ele>
        <time>2017-06-10T11:35:45Z</time>
      </trkpt>
      <trkpt lat="42.81144" lon="1.76843">
        <ele>2095.5</ele>
        <time>2017-06-10T11:35:59Z</time>
      </trkpt>
      <trkpt lat="42.8114" lon="1.76831">
        <ele>2091.6</ele>
        <time>2017-06-10T11:36:13Z</time>
      </trkpt>
      <trkpt lat="42.81138" lon="1.76819">
        <ele>2086.4</ele>
        <time>2017-06-10T11:36:28Z</time>
      </trkpt>
      <trkpt lat="42.81136" lon="1.76807">
        <ele>2081.3</ele>
        <time>2017-06-10T11:36:42Z</time>
      </trkpt>
      <trkpt lat="42.81126" lon="1.76809">
        <ele>2077.9</ele>
        <time>2017-06-10T11:36:54Z</time>
      </trkpt>
      <trkpt lat="42.81117" lon="1.76811">
        <ele>2074.6</ele>
        <time>2017-06-10T11:37:08Z</time>
      </trkpt>
      <trkpt lat="42.81108" lon="1.76806">
        <ele>2069.9</ele>
        <time>2017-06-10T11:37:26Z</time>
      </trkpt>
      <trkpt lat="42.81103" lon="1.76796">
        <ele>2064.7</ele>
        <time>2017-06-10T11:37:45Z</time>
      </trkpt>
      <trkpt lat="42.81095" lon="1.7679">
        <ele>2059.7</ele>
        <time>2017-06-10T11:38:03Z</time>
      </trkpt>
      <trkpt lat="42.81086" lon="1.76785">
        <ele>2055</ele>
        <time>2017-06-10T11:38:21Z</time>
      </trkpt>
      <trkpt lat="42.81076" lon="1.76772">
        <ele>2049.7</ele>
        <time>2017-06-10T11:38:56Z</time>
      </trkpt>
      <trkpt lat="42.81067" lon="1.76772">
        <ele>2042.3</ele>
        <time>2017-06-10T11:39:10Z</time>
      </trkpt>
      <trkpt lat="42.81058" lon="1.7677">
        <ele>2037.6</ele>
        <time>2017-06-10T11:39:30Z</time>
      </trkpt>
      <trkpt lat="42.8105" lon="1.76764">
        <ele>2033.2</ele>
        <time>2017-06-10T11:39:40Z</time>
      </trkpt>
      <trkpt lat="42.81041" lon="1.76765">
        <ele>2028.5</ele>
        <time>2017-06-10T11:39:52Z</time>
      </trkpt>
      <trkpt lat="42.81031" lon="1.76766">
        <ele>2024.4</ele>
        <time>2017-06-10T11:40:05Z</time>
      </trkpt>
      <trkpt lat="42.81022" lon="1.76763">
        <ele>2019.6</ele>
        <time>2017-06-10T11:40:19Z</time>
      </trkpt>
      <trkpt lat="42.81012" lon="1.76759">
        <ele>2014.6</ele>
        <time>2017-06-10T11:47:17Z</time>
      </trkpt>
      <trkpt lat="42.81002" lon="1.7676">
        <ele>2010</ele>
        <time>2017-06-10T11:47:29Z</time>
      </trkpt>
      <trkpt lat="42.80993" lon="1.76758">
        <ele>2005.1</ele>
        <time>2017-06-10T11:47:42Z</time>
      </trkpt>
      <trkpt lat="42.80985" lon="1.76751">
        <ele>2000.9</ele>
        <time>2017-06-10T11:47:55Z</time>
      </trkpt>
      <trkpt lat="42.80976" lon="1.76751">
        <ele>1996.2</ele>
        <time>2017-06-10T11:48:22Z</time>
      </trkpt>
      <trkpt lat="42.80968" lon="1.76743">
        <ele>1991.5</ele>
        <time>2017-06-10T11:48:41Z</time>
      </trkpt>
      <trkpt lat="42.8096" lon="1.76736">
        <ele>1986</ele>
        <time>2017-06-10T11:48:55Z</time>
      </trkpt>
      <trkpt lat="42.80954" lon="1.76727">
        <ele>1981.5</ele>
        <time>2017-06-10T11:49:08Z</time>
      </trkpt>
      <trkpt lat="42.80945" lon="1.76724">
        <ele>1977.1</ele>
        <time>2017-06-10T11:49:22Z</time>
      </trkpt>
      <trkpt lat="42.80937" lon="1.76716">
        <ele>1972.6</ele>
        <time>2017-06-10T11:49:37Z</time>
      </trkpt>
      <trkpt lat="42.80927" lon="1.76716">
        <ele>1968.6</ele>
        <time>2017-06-10T11:49:46Z</time>
      </trkpt>
      <trkpt lat="42.8092" lon="1.76724">
        <ele>1965.8</ele>
        <time>2017-06-10T11:49:55Z</time>
      </trkpt>
      <trkpt lat="42.80911" lon="1.7673">
        <ele>1963</ele>
        <time>2017-06-10T11:50:03Z</time>
      </trkpt>
      <trkpt lat="42.80903" lon="1.76736">
        <ele>1960.2</ele>
        <time>2017-06-10T11:50:10Z</time>
      </trkpt>
      <trkpt lat="42.80896" lon="1.76744">
        <ele>1957.8</ele>
        <time>2017-06-10T11:50:19Z</time>
      </trkpt>
      <trkpt lat="42.80891" lon="1.76755">
        <ele>1955.3</ele>
        <time>2017-06-10T11:50:28Z</time>
      </trkpt>
      <trkpt lat="42.80885" lon="1.76764">
        <ele>1951</ele>
        <time>2017-06-10T11:50:37Z</time>
      </trkpt>
      <trkpt lat="42.80875" lon="1.76762">
        <ele>1945.9</ele>
        <time>2017-06-10T11:50:54Z</time>
      </trkpt>
      <trkpt lat="42.80867" lon="1.76755">
        <ele>1943.5</ele>
        <time>2017-06-10T11:51:06Z</time>
      </trkpt>
      <trkpt lat="42.8086" lon="1.76748">
        <ele>1941.3</ele>
        <time>2017-06-10T11:51:18Z</time>
      </trkpt>
      <trkpt lat="42.80851" lon="1.76747">
        <ele>1937.3</ele>
        <time>2017-06-10T11:51:27Z</time>
      </trkpt>
      <trkpt lat="42.80842" lon="1.76746">
        <ele>1933</ele>
        <time>2017-06-10T11:51:37Z</time>
      </trkpt>
      <trkpt lat="42.80832" lon="1.76749">
        <ele>1928.7</ele>
        <time>2017-06-10T11:51:47Z</time>
      </trkpt>
      <trkpt lat="42.80821" lon="1.76751">
        <ele>1925.5</ele>
        <time>2017-06-10T11:51:54Z</time>
      </trkpt>
      <trkpt lat="42.80813" lon="1.76757">
        <ele>1920.8</ele>
        <time>2017-06-10T11:52:04Z</time>
      </trkpt>
      <trkpt lat="42.80804" lon="1.76764">
        <ele>1916.3</ele>
        <time>2017-06-10T11:52:13Z</time>
      </trkpt>
      <trkpt lat="42.80796" lon="1.76771">
        <ele>1911.3</ele>
        <time>2017-06-10T11:52:24Z</time>
      </trkpt>
      <trkpt lat="42.80786" lon="1.76777">
        <ele>1907.3</ele>
        <time>2017-06-10T11:52:32Z</time>
      </trkpt>
      <trkpt lat="42.80777" lon="1.76781">
        <ele>1902.4</ele>
        <time>2017-06-10T11:52:43Z</time>
      </trkpt>
      <trkpt lat="42.8077" lon="1.76789">
        <ele>1897.7</ele>
        <time>2017-06-10T11:52:57Z</time>
      </trkpt>
      <trkpt lat="42.8076" lon="1.76789">
        <ele>1894</ele>
        <time>2017-06-10T11:53:09Z</time>
      </trkpt>
      <trkpt lat="42.8075" lon="1.76791">
        <ele>1890.1</ele>
        <time>2017-06-10T11:53:24Z</time>
      </trkpt>
      <trkpt lat="42.80742" lon="1.76786">
        <ele>1888.5</ele>
        <time>2017-06-10T11:53:34Z</time>
      </trkpt>
      <trkpt lat="42.80733" lon="1.76782">
        <ele>1886.7</ele>
        <time>2017-06-10T11:53:44Z</time>
      </trkpt>
      <trkpt lat="42.80723" lon="1.76778">
        <ele>1885.1</ele>
        <time>2017-06-10T11:54:35Z</time>
      </trkpt>
      <trkpt lat="42.80714" lon="1.76781">
        <ele>1881.6</ele>
        <time>2017-06-10T11:55:08Z</time>
      </trkpt>
      <trkpt lat="42.80705" lon="1.76785">
        <ele>1877.9</ele>
        <time>2017-06-10T11:55:19Z</time>
      </trkpt>
      <trkpt lat="42.80696" lon="1.76788">
        <ele>1874.2</ele>
        <time>2017-06-10T11:55:29Z</time>
      </trkpt>
      <trkpt lat="42.80687" lon="1.76785">
        <ele>1871.4</ele>
        <time>2017-06-10T11:55:41Z</time>
      </trkpt>
      <trkpt lat="42.80679" lon="1.76777">
        <ele>1870.9</ele>
        <time>2017-06-10T11:55:50Z</time>
      </trkpt>
      <trkpt lat="42.80671" lon="1.76771">
        <ele>1869.1</ele>
        <time>2017-06-10T11:56:07Z</time>
      </trkpt>
      <trkpt lat="42.80662" lon="1.76777">
        <ele>1865.7</ele>
        <time>2017-06-10T11:56:23Z</time>
      </trkpt>
      <trkpt lat="42.80653" lon="1.76779">
        <ele>1861.6</ele>
        <time>2017-06-10T11:56:32Z</time>
      </trkpt>
      <trkpt lat="42.80643" lon="1.76783">
        <ele>1857.2</ele>
        <time>2017-06-10T11:56:47Z</time>
      </trkpt>
      <trkpt lat="42.80634" lon="1.76786">
        <ele>1854</ele>
        <time>2017-06-10T11:56:54Z</time>
      </trkpt>
      <trkpt lat="42.80625" lon="1.76789">
        <ele>1850</ele>
        <time>2017-06-10T11:57:02Z</time>
      </trkpt>
      <trkpt lat="42.80615" lon="1.76792">
        <ele>1845.6</ele>
        <time>2017-06-10T11:57:12Z</time>
      </trkpt>
      <trkpt lat="42.80605" lon="1.76792">
        <ele>1841.8</ele>
        <time>2017-06-10T11:57:23Z</time>
      </trkpt>
      <trkpt lat="42.80596" lon="1.76788">
        <ele>1838.6</ele>
        <time>2017-06-10T11:57:44Z</time>
      </trkpt>
      <trkpt lat="42.80588" lon="1.76782">
        <ele>1836.3</ele>
        <time>2017-06-10T11:57:53Z</time>
      </trkpt>
      <trkpt lat="42.80579" lon="1.76775">
        <ele>1833.4</ele>
        <time>2017-06-10T11:58:02Z</time>
      </trkpt>
      <trkpt lat="42.8057" lon="1.76772">
        <ele>1830.1</ele>
        <time>2017-06-10T11:58:10Z</time>
      </trkpt>
      <trkpt lat="42.8056" lon="1.76771">
        <ele>1826.1</ele>
        <time>2017-06-10T11:58:19Z</time>
      </trkpt>
      <trkpt lat="42.80551" lon="1.76769">
        <ele>1822</ele>
        <time>2017-06-10T11:58:29Z</time>
      </trkpt>
      <trkpt lat="42.80542" lon="1.76769">
        <ele>1818.1</ele>
        <time>2017-06-10T11:58:38Z</time>
      </trkpt>
      <trkpt lat="42.80532" lon="1.76767">
        <ele>1814.1</ele>
        <time>2017-06-10T11:58:48Z</time>
      </trkpt>
      <trkpt lat="42.80522" lon="1.76765">
        <ele>1810.5</ele>
        <time>2017-06-10T11:58:56Z</time>
      </trkpt>
      <trkpt lat="42.80513" lon="1.76765">
        <ele>1806.2</ele>
        <time>2017-06-10T11:59:05Z</time>
      </trkpt>
      <trkpt lat="42.80493" lon="1.76778">
        <ele>1797</ele>
        <time>2017-06-10T12:08:02Z</time>
      </trkpt>
      <trkpt lat="42.80494" lon="1.7679">
        <ele>1795.1</ele>
        <time>2017-06-10T12:08:21Z</time>
      </trkpt>
      <trkpt lat="42.80489" lon="1.76801">
        <ele>1792.9</ele>
        <time>2017-06-10T12:08:37Z</time>
      </trkpt>
      <trkpt lat="42.8049" lon="1.76814">
        <ele>1791</ele>
        <time>2017-06-10T12:09:05Z</time>
      </trkpt>
      <trkpt lat="42.80498" lon="1.76821">
        <ele>1792.5</ele>
        <time>2017-06-10T12:09:24Z</time>
      </trkpt>
      <trkpt lat="42.80504" lon="1.7683">
        <ele>1794.2</ele>
        <time>2017-06-10T12:09:48Z</time>
      </trkpt>
      <trkpt lat="42.80501" lon="1.76842">
        <ele>1791.1</ele>
        <time>2017-06-10T12:10:14Z</time>
      </trkpt>
      <trkpt lat="42.80499" lon="1.76854">
        <ele>1786</ele>
        <time>2017-06-10T12:10:40Z</time>
      </trkpt>
      <trkpt lat="42.805" lon="1.76867">
        <ele>1782</ele>
        <time>2017-06-10T12:11:02Z</time>
      </trkpt>
      <trkpt lat="42.80499" lon="1.7688">
        <ele>1778.6</ele>
        <time>2017-06-10T12:11:34Z</time>
      </trkpt>
      <trkpt lat="42.80504" lon="1.76889">
        <ele>1776.9</ele>
        <time>2017-06-10T12:12:02Z</time>
      </trkpt>
      <trkpt lat="42.80506" lon="1.76903">
        <ele>1774.7</ele>
        <time>2017-06-10T12:12:10Z</time>
      </trkpt>
      <trkpt lat="42.80505" lon="1.76915">
        <ele>1770.4</ele>
        <time>2017-06-10T12:12:19Z</time>
      </trkpt>
      <trkpt lat="42.80503" lon="1.76928">
        <ele>1765.7</ele>
        <time>2017-06-10T12:12:28Z</time>
      </trkpt>
      <trkpt lat="42.80504" lon="1.76941">
        <ele>1762.7</ele>
        <time>2017-06-10T12:12:42Z</time>
      </trkpt>
      <trkpt lat="42.80504" lon="1.76954">
        <ele>1760</ele>
        <time>2017-06-10T12:12:51Z</time>
      </trkpt>
      <trkpt lat="42.80506" lon="1.76967">
        <ele>1757.3</ele>
        <time>2017-06-10T12:13:04Z</time>
      </trkpt>
      <trkpt lat="42.80507" lon="1.7698">
        <ele>1754.3</ele>
        <time>2017-06-10T12:13:26Z</time>
      </trkpt>
      <trkpt lat="42.80508" lon="1.76993">
        <ele>1751.5</ele>
        <time>2017-06-10T12:13:36Z</time>
      </trkpt>
      <trkpt lat="42.8051" lon="1.77006">
        <ele>1749.7</ele>
        <time>2017-06-10T12:13:45Z</time>
      </trkpt>
      <trkpt lat="42.80509" lon="1.77018">
        <ele>1748.7</ele>
        <time>2017-06-10T12:13:55Z</time>
      </trkpt>
      <trkpt lat="42.80512" lon="1.77031">
        <ele>1748.2</ele>
        <time>2017-06-10T12:14:04Z</time>
      </trkpt>
      <trkpt lat="42.80509" lon="1.77043">
        <ele>1747</ele>
        <time>2017-06-10T12:14:23Z</time>
      </trkpt>
      <trkpt lat="42.80508" lon="1.77056">
        <ele>1745.4</ele>
        <time>2017-06-10T12:14:35Z</time>
      </trkpt>
      <trkpt lat="42.80512" lon="1.77068">
        <ele>1745.9</ele>
        <time>2017-06-10T12:17:01Z</time>
      </trkpt>
      <trkpt lat="42.80515" lon="1.7708">
        <ele>1746.2</ele>
        <time>2017-06-10T12:18:27Z</time>
      </trkpt>
      <trkpt lat="42.80513" lon="1.77092">
        <ele>1744.9</ele>
        <time>2017-06-10T12:18:41Z</time>
      </trkpt>
      <trkpt lat="42.80513" lon="1.77104">
        <ele>1744.1</ele>
        <time>2017-06-10T12:18:54Z</time>
      </trkpt>
      <trkpt lat="42.80506" lon="1.77113">
        <ele>1741.1</ele>
        <time>2017-06-10T12:19:11Z</time>
      </trkpt>
      <trkpt lat="42.8051" lon="1.77126">
        <ele>1740.9</ele>
        <time>2017-06-10T12:19:32Z</time>
      </trkpt>
      <trkpt lat="42.80514" lon="1.77137">
        <ele>1741.8</ele>
        <time>2017-06-10T12:19:41Z</time>
      </trkpt>
      <trkpt lat="42.80519" lon="1.77148">
        <ele>1744.1</ele>
        <time>2017-06-10T12:20:06Z</time>
      </trkpt>
      <trkpt lat="42.80524" lon="1.77161">
        <ele>1746.4</ele>
        <time>2017-06-10T12:20:22Z</time>
      </trkpt>
      <trkpt lat="42.80523" lon="1.77174">
        <ele>1745.7</ele>
        <time>2017-06-10T12:20:32Z</time>
      </trkpt>
      <trkpt lat="42.80526" lon="1.77186">
        <ele>1744.6</ele>
        <time>2017-06-10T12:20:41Z</time>
      </trkpt>
      <trkpt lat="42.80528" lon="1.77198">
        <ele>1743</ele>
        <time>2017-06-10T12:20:51Z</time>
      </trkpt>
      <trkpt lat="42.80534" lon="1.77208">
        <ele>1744</ele>
        <time>2017-06-10T12:20:59Z</time>
      </trkpt>
      <trkpt lat="42.80539" lon="1.77219">
        <ele>1745.7</ele>
        <time>2017-06-10T12:21:10Z</time>
      </trkpt>
      <trkpt lat="42.80541" lon="1.77232">
        <ele>1745.1</ele>
        <time>2017-06-10T12:21:24Z</time>
      </trkpt>
      <trkpt lat="42.80542" lon="1.77246">
        <ele>1743</ele>
        <time>2017-06-10T12:21:35Z</time>
      </trkpt>
      <trkpt lat="42.80538" lon="1.77258">
        <ele>1738.6</ele>
        <time>2017-06-10T12:21:44Z</time>
      </trkpt>
      <trkpt lat="42.8054" lon="1.77271">
        <ele>1735.5</ele>
        <time>2017-06-10T12:21:59Z</time>
      </trkpt>
      <trkpt lat="42.80546" lon="1.77281">
        <ele>1735.8</ele>
        <time>2017-06-10T12:22:10Z</time>
      </trkpt>
      <trkpt lat="42.80555" lon="1.77286">
        <ele>1739.6</ele>
        <time>2017-06-10T12:22:26Z</time>
      </trkpt>
      <trkpt lat="42.80561" lon="1.77296">
        <ele>1740.8</ele>
        <time>2017-06-10T12:22:39Z</time>
      </trkpt>
      <trkpt lat="42.80567" lon="1.77305">
        <ele>1742.1</ele>
        <time>2017-06-10T12:22:56Z</time>
      </trkpt>
      <trkpt lat="42.80571" lon="1.77316">
        <ele>1742.4</ele>
        <time>2017-06-10T12:23:12Z</time>
      </trkpt>
      <trkpt lat="42.80575" lon="1.77328">
        <ele>1741.8</ele>
        <time>2017-06-10T12:23:27Z</time>
      </trkpt>
      <trkpt lat="42.8058" lon="1.77339">
        <ele>1741.7</ele>
        <time>2017-06-10T12:23:42Z</time>
      </trkpt>
      <trkpt lat="42.80584" lon="1.77351">
        <ele>1740.5</ele>
        <time>2017-06-10T12:23:53Z</time>
      </trkpt>
      <trkpt lat="42.80585" lon="1.77364">
        <ele>1738.4</ele>
        <time>2017-06-10T12:24:06Z</time>
      </trkpt>
      <trkpt lat="42.80578" lon="1.77373">
        <ele>1730.9</ele>
        <time>2017-06-10T12:24:23Z</time>
      </trkpt>
      <trkpt lat="42.80573" lon="1.77383">
        <ele>1725.6</ele>
        <time>2017-06-10T12:24:32Z</time>
      </trkpt>
      <trkpt lat="42.8057" lon="1.77396">
        <ele>1719.5</ele>
        <time>2017-06-10T12:24:48Z</time>
      </trkpt>
      <trkpt lat="42.80573" lon="1.77407">
        <ele>1717.1</ele>
        <time>2017-06-10T12:25:03Z</time>
      </trkpt>
      <trkpt lat="42.80579" lon="1.77417">
        <ele>1716.3</ele>
        <time>2017-06-10T12:25:17Z</time>
      </trkpt>
      <trkpt lat="42.80585" lon="1.77427">
        <ele>1716.6</ele>
        <time>2017-06-10T12:25:28Z</time>
      </trkpt>
      <trkpt lat="42.80588" lon="1.77439">
        <ele>1717</ele>
        <time>2017-06-10T12:25:45Z</time>
      </trkpt>
      <trkpt lat="42.80594" lon="1.7745">
        <ele>1717.6</ele>
        <time>2017-06-10T12:25:56Z</time>
      </trkpt>
      <trkpt lat="42.80598" lon="1.77462">
        <ele>1717.4</ele>
        <time>2017-06-10T12:26:09Z</time>
      </trkpt>
      <trkpt lat="42.806" lon="1.77473">
        <ele>1716.7</ele>
        <time>2017-06-10T12:26:22Z</time>
      </trkpt>
      <trkpt lat="42.80604" lon="1.77485">
        <ele>1716</ele>
        <time>2017-06-10T12:26:33Z</time>
      </trkpt>
      <trkpt lat="42.80603" lon="1.77499">
        <ele>1713.8</ele>
        <time>2017-06-10T12:27:01Z</time>
      </trkpt>
      <trkpt lat="42.80601" lon="1.77511">
        <ele>1710.3</ele>
        <time>2017-06-10T12:27:08Z</time>
      </trkpt>
      <trkpt lat="42.80606" lon="1.77523">
        <ele>1708.6</ele>
        <time>2017-06-10T12:27:17Z</time>
      </trkpt>
      <trkpt lat="42.8061" lon="1.77534">
        <ele>1709.9</ele>
        <time>2017-06-10T12:27:26Z</time>
      </trkpt>
      <trkpt lat="42.80614" lon="1.77546">
        <ele>1710.7</ele>
        <time>2017-06-10T12:27:40Z</time>
      </trkpt>
      <trkpt lat="42.80615" lon="1.77559">
        <ele>1709.9</ele>
        <time>2017-06-10T12:27:53Z</time>
      </trkpt>
      <trkpt lat="42.80618" lon="1.77574">
        <ele>1709.3</ele>
        <time>2017-06-10T12:28:12Z</time>
      </trkpt>
      <trkpt lat="42.80616" lon="1.77586">
        <ele>1706</ele>
        <time>2017-06-10T12:28:32Z</time>
      </trkpt>
      <trkpt lat="42.80614" lon="1.77599">
        <ele>1703.6</ele>
        <time>2017-06-10T12:28:58Z</time>
      </trkpt>
      <trkpt lat="42.80618" lon="1.77611">
        <ele>1705.4</ele>
        <time>2017-06-10T12:29:16Z</time>
      </trkpt>
      <trkpt lat="42.80619" lon="1.77623">
        <ele>1705.5</ele>
        <time>2017-06-10T12:29:30Z</time>
      </trkpt>
      <trkpt lat="42.80613" lon="1.77634">
        <ele>1702.9</ele>
        <time>2017-06-10T12:29:46Z</time>
      </trkpt>
      <trkpt lat="42.80609" lon="1.77645">
        <ele>1700.5</ele>
        <time>2017-06-10T12:30:09Z</time>
      </trkpt>
      <trkpt lat="42.80599" lon="1.77647">
        <ele>1696.5</ele>
        <time>2017-06-10T12:30:23Z</time>
      </trkpt>
      <trkpt lat="42.80592" lon="1.77656">
        <ele>1693.4</ele>
        <time>2017-06-10T12:30:35Z</time>
      </trkpt>
      <trkpt lat="42.80586" lon="1.77666">
        <ele>1690.3</ele>
        <time>2017-06-10T12:30:50Z</time>
      </trkpt>
      <trkpt lat="42.8058" lon="1.77676">
        <ele>1689.8</ele>
        <time>2017-06-10T12:31:11Z</time>
      </trkpt>
      <trkpt lat="42.80573" lon="1.77685">
        <ele>1689.9</ele>
        <time>2017-06-10T12:31:24Z</time>
      </trkpt>
      <trkpt lat="42.80565" lon="1.7769">
        <ele>1689.6</ele>
        <time>2017-06-10T12:31:34Z</time>
      </trkpt>
      <trkpt lat="42.80556" lon="1.77694">
        <ele>1688.6</ele>
        <time>2017-06-10T12:31:45Z</time>
      </trkpt>
      <trkpt lat="42.8055" lon="1.77704">
        <ele>1688.9</ele>
        <time>2017-06-10T12:31:56Z</time>
      </trkpt>
      <trkpt lat="42.80547" lon="1.77717">
        <ele>1690</ele>
        <time>2017-06-10T12:32:07Z</time>
      </trkpt>
      <trkpt lat="42.80542" lon="1.77728">
        <ele>1691.2</ele>
        <time>2017-06-10T12:32:16Z</time>
      </trkpt>
      <trkpt lat="42.80534" lon="1.77733">
        <ele>1691.1</ele>
        <time>2017-06-10T12:32:29Z</time>
      </trkpt>
      <trkpt lat="42.80525" lon="1.77736">
        <ele>1689.7</ele>
        <time>2017-06-10T12:32:44Z</time>
      </trkpt>
      <trkpt lat="42.80519" lon="1.77746">
        <ele>1689.9</ele>
        <time>2017-06-10T12:33:05Z</time>
      </trkpt>
      <trkpt lat="42.80511" lon="1.77753">
        <ele>1689.8</ele>
        <time>2017-06-10T12:33:41Z</time>
      </trkpt>
      <trkpt lat="42.80508" lon="1.77764">
        <ele>1691.9</ele>
        <time>2017-06-10T12:34:07Z</time>
      </trkpt>
      <trkpt lat="42.80501" lon="1.77773">
        <ele>1692.5</ele>
        <time>2017-06-10T12:35:11Z</time>
      </trkpt>
      <trkpt lat="42.80496" lon="1.77784">
        <ele>1694.7</ele>
        <time>2017-06-10T12:35:18Z</time>
      </trkpt>
      <trkpt lat="42.80491" lon="1.77794">
        <ele>1697.7</ele>
        <time>2017-06-10T12:35:27Z</time>
      </trkpt>
      <trkpt lat="42.80492" lon="1.77806">
        <ele>1701.4</ele>
        <time>2017-06-10T12:35:40Z</time>
      </trkpt>
      <trkpt lat="42.80501" lon="1.77808">
        <ele>1701.6</ele>
        <time>2017-06-10T12:36:00Z</time>
      </trkpt>
      <trkpt lat="42.80509" lon="1.77816">
        <ele>1704.2</ele>
        <time>2017-06-10T12:36:23Z</time>
      </trkpt>
      <trkpt lat="42.80517" lon="1.77822">
        <ele>1708.5</ele>
        <time>2017-06-10T12:36:37Z</time>
      </trkpt>
      <trkpt lat="42.80524" lon="1.7783">
        <ele>1712.2</ele>
        <time>2017-06-10T12:36:54Z</time>
      </trkpt>
      <trkpt lat="42.80533" lon="1.77834">
        <ele>1715.5</ele>
        <time>2017-06-10T12:37:03Z</time>
      </trkpt>
      <trkpt lat="42.80539" lon="1.77844">
        <ele>1719.7</ele>
        <time>2017-06-10T12:37:15Z</time>
      </trkpt>
      <trkpt lat="42.80546" lon="1.77851">
        <ele>1723.3</ele>
        <time>2017-06-10T12:37:25Z</time>
      </trkpt>
      <trkpt lat="42.80556" lon="1.77859">
        <ele>1726.9</ele>
        <time>2017-06-10T12:37:34Z</time>
      </trkpt>
      <trkpt lat="42.80562" lon="1.77868">
        <ele>1730.2</ele>
        <time>2017-06-10T12:37:41Z</time>
      </trkpt>
      <trkpt lat="42.80566" lon="1.77881">
        <ele>1733.7</ele>
        <time>2017-06-10T12:37:51Z</time>
      </trkpt>
      <trkpt lat="42.80573" lon="1.77888">
        <ele>1736.5</ele>
        <time>2017-06-10T12:37:58Z</time>
      </trkpt>
      <trkpt lat="42.8058" lon="1.77897">
        <ele>1739.5</ele>
        <time>2017-06-10T12:38:07Z</time>
      </trkpt>
      <trkpt lat="42.80583" lon="1.77909">
        <ele>1741.7</ele>
        <time>2017-06-10T12:38:19Z</time>
      </trkpt>
      <trkpt lat="42.80574" lon="1.77915">
        <ele>1742.4</ele>
        <time>2017-06-10T12:38:23Z</time>
      </trkpt>
      <trkpt lat="42.80564" lon="1.77918">
        <ele>1742.4</ele>
        <time>2017-06-10T12:38:29Z</time>
      </trkpt>
      <trkpt lat="42.80554" lon="1.77916">
        <ele>1741.7</ele>
        <time>2017-06-10T12:38:35Z</time>
      </trkpt>
      <trkpt lat="42.80545" lon="1.77913">
        <ele>1740</ele>
        <time>2017-06-10T12:38:43Z</time>
      </trkpt>
      <trkpt lat="42.80536" lon="1.77911">
        <ele>1738.5</ele>
        <time>2017-06-10T12:38:51Z</time>
      </trkpt>
      <trkpt lat="42.80528" lon="1.77902">
        <ele>1735.1</ele>
        <time>2017-06-10T12:44:28Z</time>
      </trkpt>
      <trkpt lat="42.80518" lon="1.77901">
        <ele>1733.9</ele>
        <time>2017-06-10T12:47:41Z</time>
      </trkpt>
      <trkpt lat="42.80508" lon="1.77901">
        <ele>1732.1</ele>
        <time>2017-06-10T12:47:49Z</time>
      </trkpt>
      <trkpt lat="42.80498" lon="1.77905">
        <ele>1731.8</ele>
        <time>2017-06-10T12:47:56Z</time>
      </trkpt>
      <trkpt lat="42.80489" lon="1.77906">
        <ele>1733.4</ele>
        <time>2017-06-10T12:48:07Z</time>
      </trkpt>
      <trkpt lat="42.8048" lon="1.77911">
        <ele>1735.8</ele>
        <time>2017-06-10T12:48:17Z</time>
      </trkpt>
      <trkpt lat="42.80472" lon="1.77915">
        <ele>1738.5</ele>
        <time>2017-06-10T12:48:27Z</time>
      </trkpt>
      <trkpt lat="42.80463" lon="1.77919">
        <ele>1741</ele>
        <time>2017-06-10T12:48:35Z</time>
      </trkpt>
      <trkpt lat="42.80453" lon="1.7792">
        <ele>1743.1</ele>
        <time>2017-06-10T12:48:43Z</time>
      </trkpt>
      <trkpt lat="42.80444" lon="1.77923">
        <ele>1745</ele>
        <time>2017-06-10T12:48:51Z</time>
      </trkpt>
      <trkpt lat="42.80435" lon="1.77921">
        <ele>1746.4</ele>
        <time>2017-06-10T12:48:58Z</time>
      </trkpt>
      <trkpt lat="42.80426" lon="1.77921">
        <ele>1747.3</ele>
        <time>2017-06-10T12:49:07Z</time>
      </trkpt>
      <trkpt lat="42.80416" lon="1.77921">
        <ele>1748.5</ele>
        <time>2017-06-10T12:49:15Z</time>
      </trkpt>
      <trkpt lat="42.80407" lon="1.77923">
        <ele>1749.2</ele>
        <time>2017-06-10T12:49:24Z</time>
      </trkpt>
      <trkpt lat="42.80397" lon="1.77923">
        <ele>1749.5</ele>
        <time>2017-06-10T12:49:32Z</time>
      </trkpt>
      <trkpt lat="42.80388" lon="1.77925">
        <ele>1749.9</ele>
        <time>2017-06-10T12:49:41Z</time>
      </trkpt>
      <trkpt lat="42.80379" lon="1.77928">
        <ele>1750.6</ele>
        <time>2017-06-10T12:49:49Z</time>
      </trkpt>
      <trkpt lat="42.80369" lon="1.77929">
        <ele>1751.1</ele>
        <time>2017-06-10T12:50:00Z</time>
      </trkpt>
      <trkpt lat="42.8036" lon="1.77932">
        <ele>1752</ele>
        <time>2017-06-10T12:50:10Z</time>
      </trkpt>
      <trkpt lat="42.8035" lon="1.7793">
        <ele>1751.8</ele>
        <time>2017-06-10T12:50:20Z</time>
      </trkpt>
      <trkpt lat="42.80342" lon="1.77927">
        <ele>1750.8</ele>
        <time>2017-06-10T12:50:29Z</time>
      </trkpt>
      <trkpt lat="42.80332" lon="1.77924">
        <ele>1749.8</ele>
        <time>2017-06-10T12:50:37Z</time>
      </trkpt>
      <trkpt lat="42.80323" lon="1.77925">
        <ele>1750.2</ele>
        <time>2017-06-10T12:50:46Z</time>
      </trkpt>
      <trkpt lat="42.80314" lon="1.7793">
        <ele>1751.9</ele>
        <time>2017-06-10T12:50:54Z</time>
      </trkpt>
      <trkpt lat="42.80305" lon="1.77934">
        <ele>1754.1</ele>
        <time>2017-06-10T12:51:02Z</time>
      </trkpt>
      <trkpt lat="42.80296" lon="1.7794">
        <ele>1756.4</ele>
        <time>2017-06-10T12:51:10Z</time>
      </trkpt>
      <trkpt lat="42.80287" lon="1.77945">
        <ele>1759</ele>
        <time>2017-06-10T12:51:18Z</time>
      </trkpt>
      <trkpt lat="42.80278" lon="1.77952">
        <ele>1761.8</ele>
        <time>2017-06-10T12:51:27Z</time>
      </trkpt>
      <trkpt lat="42.80272" lon="1.77961">
        <ele>1764.6</ele>
        <time>2017-06-10T12:51:35Z</time>
      </trkpt>
      <trkpt lat="42.80265" lon="1.77969">
        <ele>1768</ele>
        <time>2017-06-10T12:51:44Z</time>
      </trkpt>
      <trkpt lat="42.80256" lon="1.77972">
        <ele>1769.9</ele>
        <time>2017-06-10T12:51:54Z</time>
      </trkpt>
      <trkpt lat="42.80247" lon="1.77978">
        <ele>1771.8</ele>
        <time>2017-06-10T12:52:02Z</time>
      </trkpt>
      <trkpt lat="42.80238" lon="1.77982">
        <ele>1772.1</ele>
        <time>2017-06-10T12:52:13Z</time>
      </trkpt>
      <trkpt lat="42.80231" lon="1.7799">
        <ele>1773</ele>
        <time>2017-06-10T12:52:21Z</time>
      </trkpt>
      <trkpt lat="42.80225" lon="1.78001">
        <ele>1775.2</ele>
        <time>2017-06-10T12:52:32Z</time>
      </trkpt>
      <trkpt lat="42.80222" lon="1.78013">
        <ele>1777</ele>
        <time>2017-06-10T12:52:40Z</time>
      </trkpt>
      <trkpt lat="42.80217" lon="1.78024">
        <ele>1778.8</ele>
        <time>2017-06-10T12:52:51Z</time>
      </trkpt>
      <trkpt lat="42.80212" lon="1.78035">
        <ele>1780.2</ele>
        <time>2017-06-10T12:53:01Z</time>
      </trkpt>
      <trkpt lat="42.80205" lon="1.78045">
        <ele>1781.3</ele>
        <time>2017-06-10T12:53:10Z</time>
      </trkpt>
      <trkpt lat="42.80197" lon="1.78053">
        <ele>1781.9</ele>
        <time>2017-06-10T12:53:18Z</time>
      </trkpt>
      <trkpt lat="42.80189" lon="1.78062">
        <ele>1782.4</ele>
        <time>2017-06-10T12:53:27Z</time>
      </trkpt>
      <trkpt lat="42.80182" lon="1.7807">
        <ele>1782.9</ele>
        <time>2017-06-10T12:53:35Z</time>
      </trkpt>
      <trkpt lat="42.80175" lon="1.78079">
        <ele>1783.9</ele>
        <time>2017-06-10T12:53:44Z</time>
      </trkpt>
      <trkpt lat="42.80169" lon="1.78093">
        <ele>1785.1</ele>
        <time>2017-06-10T12:56:04Z</time>
      </trkpt>
      <trkpt lat="42.80165" lon="1.78105">
        <ele>1786.9</ele>
        <time>2017-06-10T12:56:12Z</time>
      </trkpt>
      <trkpt lat="42.80162" lon="1.78117">
        <ele>1788.6</ele>
        <time>2017-06-10T12:56:22Z</time>
      </trkpt>
      <trkpt lat="42.80157" lon="1.78128">
        <ele>1789.6</ele>
        <time>2017-06-10T12:56:30Z</time>
      </trkpt>
      <trkpt lat="42.8015" lon="1.78137">
        <ele>1790.1</ele>
        <time>2017-06-10T12:56:37Z</time>
      </trkpt>
      <trkpt lat="42.80145" lon="1.78149">
        <ele>1791.1</ele>
        <time>2017-06-10T12:56:48Z</time>
      </trkpt>
      <trkpt lat="42.80139" lon="1.7816">
        <ele>1791.9</ele>
        <time>2017-06-10T12:56:55Z</time>
      </trkpt>
      <trkpt lat="42.80134" lon="1.78171">
        <ele>1792.8</ele>
        <time>2017-06-10T12:57:03Z</time>
      </trkpt>
      <trkpt lat="42.80129" lon="1.78183">
        <ele>1794.4</ele>
        <time>2017-06-10T12:57:13Z</time>
      </trkpt>
      <trkpt lat="42.80123" lon="1.78194">
        <ele>1795.5</ele>
        <time>2017-06-10T12:57:22Z</time>
      </trkpt>
      <trkpt lat="42.80117" lon="1.78204">
        <ele>1796.1</ele>
        <time>2017-06-10T12:57:29Z</time>
      </trkpt>
      <trkpt lat="42.8011" lon="1.78215">
        <ele>1796.4</ele>
        <time>2017-06-10T12:57:36Z</time>
      </trkpt>
      <trkpt lat="42.80105" lon="1.78225">
        <ele>1796.7</ele>
        <time>2017-06-10T12:57:41Z</time>
      </trkpt>
      <trkpt lat="42.80099" lon="1.78237">
        <ele>1797.1</ele>
        <time>2017-06-10T12:57:48Z</time>
      </trkpt>
      <trkpt lat="42.80094" lon="1.78247">
        <ele>1797.1</ele>
        <time>2017-06-10T12:57:54Z</time>
      </trkpt>
      <trkpt lat="42.80086" lon="1.78257">
        <ele>1796.5</ele>
        <time>2017-06-10T12:58:01Z</time>
      </trkpt>
      <trkpt lat="42.80081" lon="1.78267">
        <ele>1796.4</ele>
        <time>2017-06-10T12:58:09Z</time>
      </trkpt>
      <trkpt lat="42.80075" lon="1.78278">
        <ele>1796</ele>
        <time>2017-06-10T12:58:17Z</time>
      </trkpt>
      <trkpt lat="42.80068" lon="1.78286">
        <ele>1795</ele>
        <time>2017-06-10T12:58:23Z</time>
      </trkpt>
      <trkpt lat="42.80059" lon="1.78293">
        <ele>1793</ele>
        <time>2017-06-10T12:58:30Z</time>
      </trkpt>
      <trkpt lat="42.80051" lon="1.78301">
        <ele>1790.8</ele>
        <time>2017-06-10T12:58:37Z</time>
      </trkpt>
      <trkpt lat="42.80043" lon="1.7831">
        <ele>1788.6</ele>
        <time>2017-06-10T12:58:45Z</time>
      </trkpt>
      <trkpt lat="42.80033" lon="1.78316">
        <ele>1786.5</ele>
        <time>2017-06-10T12:58:51Z</time>
      </trkpt>
      <trkpt lat="42.80026" lon="1.78325">
        <ele>1784.4</ele>
        <time>2017-06-10T12:58:58Z</time>
      </trkpt>
      <trkpt lat="42.80019" lon="1.78333">
        <ele>1782.7</ele>
        <time>2017-06-10T12:59:04Z</time>
      </trkpt>
      <trkpt lat="42.80011" lon="1.78341">
        <ele>1780.9</ele>
        <time>2017-06-10T12:59:11Z</time>
      </trkpt>
      <trkpt lat="42.80003" lon="1.78349">
        <ele>1779.2</ele>
        <time>2017-06-10T12:59:17Z</time>
      </trkpt>
      <trkpt lat="42.79997" lon="1.78359">
        <ele>1778.1</ele>
        <time>2017-06-10T12:59:24Z</time>
      </trkpt>
      <trkpt lat="42.79991" lon="1.78367">
        <ele>1777.8</ele>
        <time>2017-06-10T12:59:30Z</time>
      </trkpt>
      <trkpt lat="42.79983" lon="1.78376">
        <ele>1777.3</ele>
        <time>2017-06-10T12:59:36Z</time>
      </trkpt>
      <trkpt lat="42.79975" lon="1.78382">
        <ele>1776.2</ele>
        <time>2017-06-10T12:59:43Z</time>
      </trkpt>
      <trkpt lat="42.79966" lon="1.78389">
        <ele>1775.2</ele>
        <time>2017-06-10T12:59:51Z</time>
      </trkpt>
      <trkpt lat="42.79957" lon="1.78393">
        <ele>1773.3</ele>
        <time>2017-06-10T12:59:58Z</time>
      </trkpt>
      <trkpt lat="42.79948" lon="1.78399">
        <ele>1771.4</ele>
        <time>2017-06-10T13:00:06Z</time>
      </trkpt>
      <trkpt lat="42.79939" lon="1.78404">
        <ele>1769.9</ele>
        <time>2017-06-10T13:00:13Z</time>
      </trkpt>
      <trkpt lat="42.7993" lon="1.78407">
        <ele>1767.5</ele>
        <time>2017-06-10T13:00:24Z</time>
      </trkpt>
      <trkpt lat="42.79922" lon="1.78415">
        <ele>1766.2</ele>
        <time>2017-06-10T13:00:38Z</time>
      </trkpt>
      <trkpt lat="42.79915" lon="1.78423">
        <ele>1765.6</ele>
        <time>2017-06-10T13:00:45Z</time>
      </trkpt>
      <trkpt lat="42.79908" lon="1.78434">
        <ele>1765.1</ele>
        <time>2017-06-10T13:00:53Z</time>
      </trkpt>
      <trkpt lat="42.79902" lon="1.78444">
        <ele>1764.7</ele>
        <time>2017-06-10T13:01:01Z</time>
      </trkpt>
      <trkpt lat="42.79897" lon="1.78456">
        <ele>1764.5</ele>
        <time>2017-06-10T13:01:09Z</time>
      </trkpt>
      <trkpt lat="42.79889" lon="1.78465">
        <ele>1763.5</ele>
        <time>2017-06-10T13:01:16Z</time>
      </trkpt>
      <trkpt lat="42.79885" lon="1.78476">
        <ele>1763.5</ele>
        <time>2017-06-10T13:01:24Z</time>
      </trkpt>
      <trkpt lat="42.7988" lon="1.78486">
        <ele>1763.1</ele>
        <time>2017-06-10T13:01:31Z</time>
      </trkpt>
      <trkpt lat="42.79873" lon="1.78498">
        <ele>1762.4</ele>
        <time>2017-06-10T13:01:39Z</time>
      </trkpt>
      <trkpt lat="42.79868" lon="1.78509">
        <ele>1761.8</ele>
        <time>2017-06-10T13:01:45Z</time>
      </trkpt>
      <trkpt lat="42.79864" lon="1.78521">
        <ele>1761</ele>
        <time>2017-06-10T13:01:52Z</time>
      </trkpt>
      <trkpt lat="42.7986" lon="1.78532">
        <ele>1760</ele>
        <time>2017-06-10T13:02:00Z</time>
      </trkpt>
      <trkpt lat="42.79857" lon="1.78545">
        <ele>1759.6</ele>
        <time>2017-06-10T13:02:08Z</time>
      </trkpt>
      <trkpt lat="42.79857" lon="1.78559">
        <ele>1760.3</ele>
        <time>2017-06-10T13:02:16Z</time>
      </trkpt>
      <trkpt lat="42.79859" lon="1.78571">
        <ele>1761.4</ele>
        <time>2017-06-10T13:02:24Z</time>
      </trkpt>
      <trkpt lat="42.79851" lon="1.78578">
        <ele>1760.1</ele>
        <time>2017-06-10T13:02:34Z</time>
      </trkpt>
      <trkpt lat="42.79841" lon="1.78573">
        <ele>1755.9</ele>
        <time>2017-06-10T13:02:41Z</time>
      </trkpt>
      <trkpt lat="42.79834" lon="1.78564">
        <ele>1752.4</ele>
        <time>2017-06-10T13:02:47Z</time>
      </trkpt>
      <trkpt lat="42.79828" lon="1.78553">
        <ele>1749.6</ele>
        <time>2017-06-10T13:02:53Z</time>
      </trkpt>
      <trkpt lat="42.79823" lon="1.78542">
        <ele>1747.1</ele>
        <time>2017-06-10T13:03:00Z</time>
      </trkpt>
      <trkpt lat="42.79818" lon="1.7853">
        <ele>1745.1</ele>
        <time>2017-06-10T13:03:07Z</time>
      </trkpt>
      <trkpt lat="42.7981" lon="1.78525">
        <ele>1742.2</ele>
        <time>2017-06-10T13:03:17Z</time>
      </trkpt>
      <trkpt lat="42.798" lon="1.78529">
        <ele>1739.3</ele>
        <time>2017-06-10T13:03:27Z</time>
      </trkpt>
      <trkpt lat="42.7979" lon="1.78526">
        <ele>1735.9</ele>
        <time>2017-06-10T13:03:35Z</time>
      </trkpt>
      <trkpt lat="42.79781" lon="1.78527">
        <ele>1732.3</ele>
        <time>2017-06-10T13:03:43Z</time>
      </trkpt>
      <trkpt lat="42.79775" lon="1.78537">
        <ele>1729.3</ele>
        <time>2017-06-10T13:03:53Z</time>
      </trkpt>
      <trkpt lat="42.79767" lon="1.78545">
        <ele>1727.3</ele>
        <time>2017-06-10T13:04:03Z</time>
      </trkpt>
      <trkpt lat="42.79757" lon="1.78547">
        <ele>1724.2</ele>
        <time>2017-06-10T13:04:09Z</time>
      </trkpt>
      <trkpt lat="42.79747" lon="1.78544">
        <ele>1720.5</ele>
        <time>2017-06-10T13:04:17Z</time>
      </trkpt>
      <trkpt lat="42.79742" lon="1.78555">
        <ele>1717.9</ele>
        <time>2017-06-10T13:04:31Z</time>
      </trkpt>
      <trkpt lat="42.79737" lon="1.78566">
        <ele>1716.8</ele>
        <time>2017-06-10T13:04:44Z</time>
      </trkpt>
      <trkpt lat="42.79731" lon="1.78576">
        <ele>1714.9</ele>
        <time>2017-06-10T13:04:54Z</time>
      </trkpt>
      <trkpt lat="42.79721" lon="1.78576">
        <ele>1712.8</ele>
        <time>2017-06-10T13:05:02Z</time>
      </trkpt>
      <trkpt lat="42.7971" lon="1.78573">
        <ele>1710.1</ele>
        <time>2017-06-10T13:05:12Z</time>
      </trkpt>
      <trkpt lat="42.797" lon="1.78577">
        <ele>1707.4</ele>
        <time>2017-06-10T13:05:24Z</time>
      </trkpt>
      <trkpt lat="42.79693" lon="1.78584">
        <ele>1705.3</ele>
        <time>2017-06-10T13:05:33Z</time>
      </trkpt>
      <trkpt lat="42.79684" lon="1.7859">
        <ele>1702.8</ele>
        <time>2017-06-10T13:05:44Z</time>
      </trkpt>
      <trkpt lat="42.79675" lon="1.78586">
        <ele>1700.4</ele>
        <time>2017-06-10T13:05:53Z</time>
      </trkpt>
      <trkpt lat="42.79665" lon="1.78586">
        <ele>1698.2</ele>
        <time>2017-06-10T13:06:03Z</time>
      </trkpt>
      <trkpt lat="42.79656" lon="1.78592">
        <ele>1695.3</ele>
        <time>2017-06-10T13:06:22Z</time>
      </trkpt>
      <trkpt lat="42.79648" lon="1.78599">
        <ele>1692.5</ele>
        <time>2017-06-10T13:06:36Z</time>
      </trkpt>
      <trkpt lat="42.79639" lon="1.786">
        <ele>1690.1</ele>
        <time>2017-06-10T13:06:47Z</time>
      </trkpt>
      <trkpt lat="42.7963" lon="1.78599">
        <ele>1687.8</ele>
        <time>2017-06-10T13:06:59Z</time>
      </trkpt>
      <trkpt lat="42.79621" lon="1.786">
        <ele>1685.5</ele>
        <time>2017-06-10T13:07:12Z</time>
      </trkpt>
      <trkpt lat="42.79613" lon="1.78594">
        <ele>1684</ele>
        <time>2017-06-10T13:07:19Z</time>
      </trkpt>
      <trkpt lat="42.79605" lon="1.78588">
        <ele>1682.5</ele>
        <time>2017-06-10T13:07:27Z</time>
      </trkpt>
      <trkpt lat="42.79595" lon="1.78587">
        <ele>1680</ele>
        <time>2017-06-10T13:07:43Z</time>
      </trkpt>
      <trkpt lat="42.79586" lon="1.78587">
        <ele>1677.9</ele>
        <time>2017-06-10T13:08:00Z</time>
      </trkpt>
      <trkpt lat="42.79577" lon="1.78584">
        <ele>1675.7</ele>
        <time>2017-06-10T13:08:09Z</time>
      </trkpt>
      <trkpt lat="42.79567" lon="1.78581">
        <ele>1672.7</ele>
        <time>2017-06-10T13:08:20Z</time>
      </trkpt>
      <trkpt lat="42.79558" lon="1.78579">
        <ele>1669.3</ele>
        <time>2017-06-10T13:08:39Z</time>
      </trkpt>
      <trkpt lat="42.79549" lon="1.78576">
        <ele>1666.2</ele>
        <time>2017-06-10T13:08:55Z</time>
      </trkpt>
      <trkpt lat="42.79545" lon="1.78565">
        <ele>1664</ele>
        <time>2017-06-10T13:09:34Z</time>
      </trkpt>
      <trkpt lat="42.79536" lon="1.78569">
        <ele>1661.2</ele>
        <time>2017-06-10T13:09:48Z</time>
      </trkpt>
      <trkpt lat="42.79527" lon="1.78566">
        <ele>1658.5</ele>
        <time>2017-06-10T13:10:00Z</time>
      </trkpt>
      <trkpt lat="42.79517" lon="1.78569">
        <ele>1655.3</ele>
        <time>2017-06-10T13:10:11Z</time>
      </trkpt>
      <trkpt lat="42.79508" lon="1.78568">
        <ele>1652.6</ele>
        <time>2017-06-10T13:10:23Z</time>
      </trkpt>
      <trkpt lat="42.795" lon="1.78565">
        <ele>1649.3</ele>
        <time>2017-06-10T13:10:33Z</time>
      </trkpt>
      <trkpt lat="42.79491" lon="1.78567">
        <ele>1646.3</ele>
        <time>2017-06-10T13:10:42Z</time>
      </trkpt>
      <trkpt lat="42.79481" lon="1.78568">
        <ele>1642.6</ele>
        <time>2017-06-10T13:10:54Z</time>
      </trkpt>
      <trkpt lat="42.79476" lon="1.78577">
        <ele>1641.3</ele>
        <time>2017-06-10T13:11:08Z</time>
      </trkpt>
      <trkpt lat="42.79471" lon="1.78588">
        <ele>1640.1</ele>
        <time>2017-06-10T13:11:19Z</time>
      </trkpt>
      <trkpt lat="42.79462" lon="1.78593">
        <ele>1637.1</ele>
        <time>2017-06-10T13:11:33Z</time>
      </trkpt>
      <trkpt lat="42.79453" lon="1.78593">
        <ele>1633.2</ele>
        <time>2017-06-10T13:11:49Z</time>
      </trkpt>
      <trkpt lat="42.79444" lon="1.78597">
        <ele>1629.7</ele>
        <time>2017-06-10T13:12:02Z</time>
      </trkpt>
      <trkpt lat="42.79437" lon="1.78607">
        <ele>1626.5</ele>
        <time>2017-06-10T13:12:13Z</time>
      </trkpt>
      <trkpt lat="42.79429" lon="1.78615">
        <ele>1623.3</ele>
        <time>2017-06-10T13:12:21Z</time>
      </trkpt>
      <trkpt lat="42.79422" lon="1.78625">
        <ele>1619.8</ele>
        <time>2017-06-10T13:12:31Z</time>
      </trkpt>
      <trkpt lat="42.79413" lon="1.78628">
        <ele>1615.9</ele>
        <time>2017-06-10T13:12:58Z</time>
      </trkpt>
      <trkpt lat="42.79405" lon="1.78633">
        <ele>1612.8</ele>
        <time>2017-06-10T13:13:10Z</time>
      </trkpt>
      <trkpt lat="42.79397" lon="1.7864">
        <ele>1610.3</ele>
        <time>2017-06-10T13:13:19Z</time>
      </trkpt>
      <trkpt lat="42.79389" lon="1.78647">
        <ele>1607</ele>
        <time>2017-06-10T13:14:07Z</time>
      </trkpt>
      <trkpt lat="42.7938" lon="1.78654">
        <ele>1604.5</ele>
        <time>2017-06-10T13:14:17Z</time>
      </trkpt>
      <trkpt lat="42.79372" lon="1.78657">
        <ele>1601.6</ele>
        <time>2017-06-10T13:14:29Z</time>
      </trkpt>
      <trkpt lat="42.79362" lon="1.78654">
        <ele>1599</ele>
        <time>2017-06-10T13:14:39Z</time>
      </trkpt>
      <trkpt lat="42.79354" lon="1.78647">
        <ele>1597.2</ele>
        <time>2017-06-10T13:14:47Z</time>
      </trkpt>
      <trkpt lat="42.79345" lon="1.78652">
        <ele>1594.2</ele>
        <time>2017-06-10T13:15:02Z</time>
      </trkpt>
      <trkpt lat="42.79342" lon="1.78664">
        <ele>1593</ele>
        <time>2017-06-10T13:15:10Z</time>
      </trkpt>
      <trkpt lat="42.79345" lon="1.78675">
        <ele>1591.7</ele>
        <time>2017-06-10T13:16:23Z</time>
      </trkpt>
    </trkseg>
  </trk>
</gpx>